sensor_id;sensor_type;location;lat;lon;timestamp;P1;durP1;ratioP1;P2;durP2;ratioP2
32094;SDS011;18608;53.688;10.748;2023-02-01T00:01:19;16.53;;;3.83;;
32094;SDS011;18608;53.688;10.748;2023-02-01T00:03:44;41.57;;;5.30;;
32094;SDS011;18608;53.688;10.748;2023-02-01T00:06:10;18.70;;;4.70;;
32094;SDS011;18608;53.688;10.748;2023-02-01T00:08:36;29.53;;;3.23;;
32094;SDS011;18608;53.688;10.748;2023-02-01T00:11:03;13.20;;;4.73;;
32094;SDS011;18608;53.688;10.748;2023-02-01T00:13:34;20.90;;;4.00;;
32094;SDS011;18608;53.688;10.748;2023-02-01T00:16:36;21.60;;;4.90;;
32094;SDS011;18608;53.688;10.748;2023-02-01T00:18:59;15.37;;;4.60;;
32094;SDS011;18608;53.688;10.748;2023-02-01T00:21:32;33.07;;;6.53;;
32094;SDS011;18608;53.688;10.748;2023-02-01T00:23:58;20.90;;;5.33;;
32094;SDS011;18608;53.688;10.748;2023-02-01T00:26:30;21.03;;;4.83;;
32094;SDS011;18608;53.688;10.748;2023-02-01T00:28:59;24.50;;;5.33;;
32094;SDS011;18608;53.688;10.748;2023-02-01T00:31:25;26.17;;;4.67;;
32094;SDS011;18608;53.688;10.748;2023-02-01T00:33:51;16.13;;;4.60;;
32094;SDS011;18608;53.688;10.748;2023-02-01T00:36:16;29.77;;;5.10;;
32094;SDS011;18608;53.688;10.748;2023-02-01T00:38:42;28.73;;;4.27;;
32094;SDS011;18608;53.688;10.748;2023-02-01T00:41:15;22.93;;;5.10;;
32094;SDS011;18608;53.688;10.748;2023-02-01T00:43:43;17.97;;;4.07;;
32094;SDS011;18608;53.688;10.748;2023-02-01T00:46:09;14.33;;;6.00;;
32094;SDS011;18608;53.688;10.748;2023-02-01T00:48:35;20.80;;;5.40;;
32094;SDS011;18608;53.688;10.748;2023-02-01T00:51:02;12.50;;;4.33;;
32094;SDS011;18608;53.688;10.748;2023-02-01T00:53:29;18.50;;;5.53;;
32094;SDS011;18608;53.688;10.748;2023-02-01T00:55:55;21.27;;;4.20;;
32094;SDS011;18608;53.688;10.748;2023-02-01T00:58:21;13.20;;;3.40;;
32094;SDS011;18608;53.688;10.748;2023-02-01T01:00:49;14.83;;;4.43;;
32094;SDS011;18608;53.688;10.748;2023-02-01T01:03:15;24.63;;;5.73;;
32094;SDS011;18608;53.688;10.748;2023-02-01T01:05:46;19.40;;;4.77;;
32094;SDS011;18608;53.688;10.748;2023-02-01T01:08:13;11.83;;;3.87;;
32094;SDS011;18608;53.688;10.748;2023-02-01T01:10:39;21.13;;;4.40;;
32094;SDS011;18608;53.688;10.748;2023-02-01T01:13:05;27.93;;;6.00;;
32094;SDS011;18608;53.688;10.748;2023-02-01T01:15:35;20.30;;;4.73;;
32094;SDS011;18608;53.688;10.748;2023-02-01T01:18:02;22.60;;;4.60;;
32094;SDS011;18608;53.688;10.748;2023-02-01T01:20:28;14.40;;;3.60;;
32094;SDS011;18608;53.688;10.748;2023-02-01T01:22:54;26.20;;;7.03;;
32094;SDS011;18608;53.688;10.748;2023-02-01T01:25:20;21.67;;;5.47;;
32094;SDS011;18608;53.688;10.748;2023-02-01T01:27:46;22.17;;;5.40;;
32094;SDS011;18608;53.688;10.748;2023-02-01T01:30:11;35.80;;;5.80;;
32094;SDS011;18608;53.688;10.748;2023-02-01T01:32:37;33.50;;;5.80;;
32094;SDS011;18608;53.688;10.748;2023-02-01T01:35:03;29.97;;;7.00;;
32094;SDS011;18608;53.688;10.748;2023-02-01T01:37:29;17.17;;;4.63;;
32094;SDS011;18608;53.688;10.748;2023-02-01T01:39:54;32.10;;;5.37;;
32094;SDS011;18608;53.688;10.748;2023-02-01T01:42:20;33.70;;;5.63;;
32094;SDS011;18608;53.688;10.748;2023-02-01T01:44:57;22.33;;;6.20;;
32094;SDS011;18608;53.688;10.748;2023-02-01T01:47:23;23.37;;;6.97;;
32094;SDS011;18608;53.688;10.748;2023-02-01T01:49:51;20.60;;;5.87;;
32094;SDS011;18608;53.688;10.748;2023-02-01T01:52:17;27.33;;;6.00;;
32094;SDS011;18608;53.688;10.748;2023-02-01T01:54:48;17.30;;;5.73;;
32094;SDS011;18608;53.688;10.748;2023-02-01T01:57:24;19.00;;;7.33;;
32094;SDS011;18608;53.688;10.748;2023-02-01T02:00:13;27.60;;;6.13;;
32094;SDS011;18608;53.688;10.748;2023-02-01T02:02:42;26.57;;;5.67;;
32094;SDS011;18608;53.688;10.748;2023-02-01T02:05:11;31.93;;;6.83;;
32094;SDS011;18608;53.688;10.748;2023-02-01T02:07:39;22.70;;;5.47;;
32094;SDS011;18608;53.688;10.748;2023-02-01T02:10:08;28.40;;;6.77;;
32094;SDS011;18608;53.688;10.748;2023-02-01T02:12:37;29.63;;;5.40;;
32094;SDS011;18608;53.688;10.748;2023-02-01T02:15:05;23.90;;;5.97;;
32094;SDS011;18608;53.688;10.748;2023-02-01T02:17:49;24.43;;;5.30;;
32094;SDS011;18608;53.688;10.748;2023-02-01T02:31:36;35.53;;;5.47;;
32094;SDS011;18608;53.688;10.748;2023-02-01T02:37:52;26.10;;;6.23;;
32094;SDS011;18608;53.688;10.748;2023-02-01T02:45:50;17.90;;;5.50;;
32094;SDS011;18608;53.688;10.748;2023-02-01T02:51:20;36.53;;;6.83;;
32094;SDS011;18608;53.688;10.748;2023-02-01T02:54:29;12.30;;;4.77;;
32094;SDS011;18608;53.688;10.748;2023-02-01T02:57:30;30.33;;;5.20;;
32094;SDS011;18608;53.688;10.748;2023-02-01T03:00:19;16.93;;;4.07;;
32094;SDS011;18608;53.688;10.748;2023-02-01T03:03:06;30.03;;;6.20;;
32094;SDS011;18608;53.688;10.748;2023-02-01T03:05:51;29.17;;;6.33;;
32094;SDS011;18608;53.688;10.748;2023-02-01T03:08:21;44.33;;;6.60;;
32094;SDS011;18608;53.688;10.748;2023-02-01T03:13:33;31.03;;;7.33;;
32094;SDS011;18608;53.688;10.748;2023-02-01T03:16:10;41.60;;;6.23;;
32094;SDS011;18608;53.688;10.748;2023-02-01T03:18:55;23.50;;;7.80;;
32094;SDS011;18608;53.688;10.748;2023-02-01T03:21:50;27.37;;;6.10;;
32094;SDS011;18608;53.688;10.748;2023-02-01T03:24:27;23.53;;;5.90;;
32094;SDS011;18608;53.688;10.748;2023-02-01T03:27:00;26.13;;;5.70;;
32094;SDS011;18608;53.688;10.748;2023-02-01T03:29:41;13.23;;;3.83;;
32094;SDS011;18608;53.688;10.748;2023-02-01T03:32:12;12.13;;;3.40;;
32094;SDS011;18608;53.688;10.748;2023-02-01T03:34:38;13.23;;;2.70;;
32094;SDS011;18608;53.688;10.748;2023-02-01T03:37:06;2.53;;;1.80;;
32094;SDS011;18608;53.688;10.748;2023-02-01T03:39:36;7.33;;;2.70;;
32094;SDS011;18608;53.688;10.748;2023-02-01T03:42:14;8.43;;;2.43;;
32094;SDS011;18608;53.688;10.748;2023-02-01T03:49:49;8.47;;;2.60;;
32094;SDS011;18608;53.688;10.748;2023-02-01T03:52:24;10.93;;;3.07;;
32094;SDS011;18608;53.688;10.748;2023-02-01T03:54:55;13.87;;;3.40;;
32094;SDS011;18608;53.688;10.748;2023-02-01T03:57:23;18.77;;;3.80;;
32094;SDS011;18608;53.688;10.748;2023-02-01T03:59:52;18.13;;;4.83;;
32094;SDS011;18608;53.688;10.748;2023-02-01T04:02:18;13.40;;;3.00;;
32094;SDS011;18608;53.688;10.748;2023-02-01T04:04:44;10.13;;;2.57;;
32094;SDS011;18608;53.688;10.748;2023-02-01T04:07:10;12.87;;;3.10;;
32094;SDS011;18608;53.688;10.748;2023-02-01T04:09:36;18.30;;;4.30;;
32094;SDS011;18608;53.688;10.748;2023-02-01T04:12:03;20.93;;;3.30;;
32094;SDS011;18608;53.688;10.748;2023-02-01T04:14:28;10.87;;;3.20;;
32094;SDS011;18608;53.688;10.748;2023-02-01T04:16:54;7.13;;;2.93;;
32094;SDS011;18608;53.688;10.748;2023-02-01T04:19:19;18.90;;;3.53;;
32094;SDS011;18608;53.688;10.748;2023-02-01T04:21:45;15.77;;;2.80;;
32094;SDS011;18608;53.688;10.748;2023-02-01T04:24:11;14.83;;;3.50;;
32094;SDS011;18608;53.688;10.748;2023-02-01T04:26:37;7.37;;;2.30;;
32094;SDS011;18608;53.688;10.748;2023-02-01T04:29:02;11.57;;;3.30;;
32094;SDS011;18608;53.688;10.748;2023-02-01T04:31:28;21.60;;;3.73;;
32094;SDS011;18608;53.688;10.748;2023-02-01T04:33:54;10.33;;;3.23;;
32094;SDS011;18608;53.688;10.748;2023-02-01T04:36:22;13.50;;;3.90;;
32094;SDS011;18608;53.688;10.748;2023-02-01T04:38:49;12.80;;;3.80;;
32094;SDS011;18608;53.688;10.748;2023-02-01T04:41:15;16.13;;;3.90;;
32094;SDS011;18608;53.688;10.748;2023-02-01T04:43:47;8.33;;;1.80;;
32094;SDS011;18608;53.688;10.748;2023-02-01T04:46:13;7.53;;;2.10;;
32094;SDS011;18608;53.688;10.748;2023-02-01T04:48:39;10.80;;;2.10;;
32094;SDS011;18608;53.688;10.748;2023-02-01T04:51:05;12.80;;;2.20;;
32094;SDS011;18608;53.688;10.748;2023-02-01T04:53:31;9.57;;;1.83;;
32094;SDS011;18608;53.688;10.748;2023-02-01T04:55:57;8.10;;;1.83;;
32094;SDS011;18608;53.688;10.748;2023-02-01T04:58:23;4.20;;;1.50;;
32094;SDS011;18608;53.688;10.748;2023-02-01T05:00:48;9.33;;;1.23;;
32094;SDS011;18608;53.688;10.748;2023-02-01T05:03:14;6.83;;;2.47;;
32094;SDS011;18608;53.688;10.748;2023-02-01T05:05:40;12.43;;;1.77;;
32094;SDS011;18608;53.688;10.748;2023-02-01T05:08:05;6.10;;;2.13;;
32094;SDS011;18608;53.688;10.748;2023-02-01T05:10:31;13.27;;;2.27;;
32094;SDS011;18608;53.688;10.748;2023-02-01T05:12:57;10.63;;;1.63;;
32094;SDS011;18608;53.688;10.748;2023-02-01T05:15:41;10.93;;;2.07;;
32094;SDS011;18608;53.688;10.748;2023-02-01T05:18:07;8.97;;;2.20;;
32094;SDS011;18608;53.688;10.748;2023-02-01T05:20:32;22.77;;;2.73;;
32094;SDS011;18608;53.688;10.748;2023-02-01T05:22:58;8.27;;;2.30;;
32094;SDS011;18608;53.688;10.748;2023-02-01T05:25:24;10.90;;;2.33;;
32094;SDS011;18608;53.688;10.748;2023-02-01T05:27:49;9.77;;;3.60;;
32094;SDS011;18608;53.688;10.748;2023-02-01T05:30:15;8.60;;;1.77;;
32094;SDS011;18608;53.688;10.748;2023-02-01T05:32:41;9.33;;;2.30;;
32094;SDS011;18608;53.688;10.748;2023-02-01T05:35:07;8.83;;;1.70;;
32094;SDS011;18608;53.688;10.748;2023-02-01T05:37:33;8.47;;;1.47;;
32094;SDS011;18608;53.688;10.748;2023-02-01T05:39:58;8.20;;;1.77;;
32094;SDS011;18608;53.688;10.748;2023-02-01T05:42:24;11.03;;;2.43;;
32094;SDS011;18608;53.688;10.748;2023-02-01T05:44:49;7.13;;;1.77;;
32094;SDS011;18608;53.688;10.748;2023-02-01T05:47:15;6.73;;;1.73;;
32094;SDS011;18608;53.688;10.748;2023-02-01T05:49:41;14.90;;;2.37;;
32094;SDS011;18608;53.688;10.748;2023-02-01T05:52:06;6.33;;;1.90;;
32094;SDS011;18608;53.688;10.748;2023-02-01T05:54:32;7.40;;;2.40;;
32094;SDS011;18608;53.688;10.748;2023-02-01T05:56:57;6.57;;;1.57;;
32094;SDS011;18608;53.688;10.748;2023-02-01T05:59:23;3.33;;;1.60;;
32094;SDS011;18608;53.688;10.748;2023-02-01T06:01:49;7.80;;;2.30;;
32094;SDS011;18608;53.688;10.748;2023-02-01T06:04:14;8.07;;;2.33;;
32094;SDS011;18608;53.688;10.748;2023-02-01T06:06:40;8.67;;;1.60;;
32094;SDS011;18608;53.688;10.748;2023-02-01T06:09:06;7.03;;;2.10;;
32094;SDS011;18608;53.688;10.748;2023-02-01T06:11:31;7.33;;;2.50;;
32094;SDS011;18608;53.688;10.748;2023-02-01T06:13:57;7.93;;;2.20;;
32094;SDS011;18608;53.688;10.748;2023-02-01T06:16:23;7.67;;;1.87;;
32094;SDS011;18608;53.688;10.748;2023-02-01T06:18:48;3.07;;;1.40;;
32094;SDS011;18608;53.688;10.748;2023-02-01T06:21:14;5.63;;;1.60;;
32094;SDS011;18608;53.688;10.748;2023-02-01T06:23:48;4.43;;;1.80;;
32094;SDS011;18608;53.688;10.748;2023-02-01T06:26:15;2.37;;;1.77;;
32094;SDS011;18608;53.688;10.748;2023-02-01T06:28:43;4.13;;;1.67;;
32094;SDS011;18608;53.688;10.748;2023-02-01T06:31:09;5.10;;;1.40;;
32094;SDS011;18608;53.688;10.748;2023-02-01T06:33:34;3.37;;;1.30;;
32094;SDS011;18608;53.688;10.748;2023-02-01T06:36:01;4.63;;;1.17;;
32094;SDS011;18608;53.688;10.748;2023-02-01T06:38:28;2.10;;;0.90;;
32094;SDS011;18608;53.688;10.748;2023-02-01T06:40:56;1.17;;;1.00;;
32094;SDS011;18608;53.688;10.748;2023-02-01T06:43:22;2.33;;;0.90;;
32094;SDS011;18608;53.688;10.748;2023-02-01T06:45:50;1.93;;;1.17;;
32094;SDS011;18608;53.688;10.748;2023-02-01T06:48:16;6.20;;;0.93;;
32094;SDS011;18608;53.688;10.748;2023-02-01T06:50:41;2.23;;;0.90;;
32094;SDS011;18608;53.688;10.748;2023-02-01T06:53:07;2.60;;;0.90;;
32094;SDS011;18608;53.688;10.748;2023-02-01T06:55:33;6.03;;;1.10;;
32094;SDS011;18608;53.688;10.748;2023-02-01T06:57:58;1.80;;;1.00;;
32094;SDS011;18608;53.688;10.748;2023-02-01T07:00:24;4.07;;;1.40;;
32094;SDS011;18608;53.688;10.748;2023-02-01T07:02:50;1.17;;;1.07;;
32094;SDS011;18608;53.688;10.748;2023-02-01T07:05:16;2.20;;;1.10;;
32094;SDS011;18608;53.688;10.748;2023-02-01T07:07:42;5.20;;;1.47;;
32094;SDS011;18608;53.688;10.748;2023-02-01T07:10:08;5.90;;;1.70;;
32094;SDS011;18608;53.688;10.748;2023-02-01T07:12:34;8.30;;;2.70;;
32094;SDS011;18608;53.688;10.748;2023-02-01T07:15:00;6.30;;;1.63;;
32094;SDS011;18608;53.688;10.748;2023-02-01T07:17:27;6.23;;;1.20;;
32094;SDS011;18608;53.688;10.748;2023-02-01T07:19:54;5.70;;;1.87;;
32094;SDS011;18608;53.688;10.748;2023-02-01T07:22:20;4.37;;;1.17;;
32094;SDS011;18608;53.688;10.748;2023-02-01T07:24:46;7.27;;;1.57;;
32094;SDS011;18608;53.688;10.748;2023-02-01T07:27:11;4.60;;;1.83;;
32094;SDS011;18608;53.688;10.748;2023-02-01T07:29:37;2.60;;;1.23;;
32094;SDS011;18608;53.688;10.748;2023-02-01T07:32:03;13.00;;;2.00;;
32094;SDS011;18608;53.688;10.748;2023-02-01T07:34:29;3.70;;;1.20;;
32094;SDS011;18608;53.688;10.748;2023-02-01T07:36:55;4.00;;;2.50;;
32094;SDS011;18608;53.688;10.748;2023-02-01T07:39:21;8.03;;;1.97;;
32094;SDS011;18608;53.688;10.748;2023-02-01T07:41:47;8.90;;;2.13;;
32094;SDS011;18608;53.688;10.748;2023-02-01T07:44:13;11.63;;;2.20;;
32094;SDS011;18608;53.688;10.748;2023-02-01T07:46:39;4.27;;;2.20;;
32094;SDS011;18608;53.688;10.748;2023-02-01T07:49:08;17.03;;;4.50;;
32094;SDS011;18608;53.688;10.748;2023-02-01T07:51:33;11.83;;;2.60;;
32094;SDS011;18608;53.688;10.748;2023-02-01T07:53:59;5.93;;;2.07;;
32094;SDS011;18608;53.688;10.748;2023-02-01T07:56:25;19.70;;;3.60;;
32094;SDS011;18608;53.688;10.748;2023-02-01T07:58:51;17.80;;;3.03;;
32094;SDS011;18608;53.688;10.748;2023-02-01T08:01:27;19.57;;;3.00;;
32094;SDS011;18608;53.688;10.748;2023-02-01T08:03:55;11.70;;;3.10;;
32094;SDS011;18608;53.688;10.748;2023-02-01T08:06:22;14.43;;;3.10;;
32094;SDS011;18608;53.688;10.748;2023-02-01T08:08:49;20.20;;;4.30;;
32094;SDS011;18608;53.688;10.748;2023-02-01T08:11:16;13.67;;;4.00;;
32094;SDS011;18608;53.688;10.748;2023-02-01T08:13:42;27.03;;;3.93;;
32094;SDS011;18608;53.688;10.748;2023-02-01T08:16:09;11.00;;;3.00;;
32094;SDS011;18608;53.688;10.748;2023-02-01T08:18:36;20.93;;;4.90;;
32094;SDS011;18608;53.688;10.748;2023-02-01T08:21:06;11.20;;;3.50;;
32094;SDS011;18608;53.688;10.748;2023-02-01T08:23:34;13.50;;;3.70;;
32094;SDS011;18608;53.688;10.748;2023-02-01T08:26:11;12.70;;;4.40;;
32094;SDS011;18608;53.688;10.748;2023-02-01T08:28:39;27.87;;;5.40;;
32094;SDS011;18608;53.688;10.748;2023-02-01T08:31:08;16.07;;;4.73;;
32094;SDS011;18608;53.688;10.748;2023-02-01T08:33:35;19.23;;;3.57;;
32094;SDS011;18608;53.688;10.748;2023-02-01T08:36:03;19.50;;;4.40;;
32094;SDS011;18608;53.688;10.748;2023-02-01T08:38:29;22.33;;;5.37;;
32094;SDS011;18608;53.688;10.748;2023-02-01T08:40:55;17.57;;;5.40;;
32094;SDS011;18608;53.688;10.748;2023-02-01T08:43:21;28.17;;;5.93;;
32094;SDS011;18608;53.688;10.748;2023-02-01T08:45:46;32.50;;;5.90;;
32094;SDS011;18608;53.688;10.748;2023-02-01T08:48:12;37.67;;;6.43;;
32094;SDS011;18608;53.688;10.748;2023-02-01T08:50:37;25.40;;;4.90;;
32094;SDS011;18608;53.688;10.748;2023-02-01T08:53:03;31.00;;;7.17;;
32094;SDS011;18608;53.688;10.748;2023-02-01T08:55:29;26.77;;;5.40;;
32094;SDS011;18608;53.688;10.748;2023-02-01T08:57:55;18.00;;;6.30;;
32094;SDS011;18608;53.688;10.748;2023-02-01T09:00:21;24.20;;;5.10;;
32094;SDS011;18608;53.688;10.748;2023-02-01T09:02:46;19.33;;;5.50;;
32094;SDS011;18608;53.688;10.748;2023-02-01T09:05:12;23.53;;;5.90;;
32094;SDS011;18608;53.688;10.748;2023-02-01T09:07:39;20.00;;;5.30;;
32094;SDS011;18608;53.688;10.748;2023-02-01T09:10:05;17.20;;;4.60;;
32094;SDS011;18608;53.688;10.748;2023-02-01T09:12:32;27.13;;;5.30;;
32094;SDS011;18608;53.688;10.748;2023-02-01T09:14:59;35.17;;;5.00;;
32094;SDS011;18608;53.688;10.748;2023-02-01T09:17:25;15.53;;;3.77;;
32094;SDS011;18608;53.688;10.748;2023-02-01T09:19:52;14.20;;;3.03;;
32094;SDS011;18608;53.688;10.748;2023-02-01T09:22:17;5.50;;;1.30;;
32094;SDS011;18608;53.688;10.748;2023-02-01T09:24:43;2.83;;;1.20;;
32094;SDS011;18608;53.688;10.748;2023-02-01T09:27:09;10.67;;;1.50;;
32094;SDS011;18608;53.688;10.748;2023-02-01T09:29:34;2.73;;;1.00;;
32094;SDS011;18608;53.688;10.748;2023-02-01T09:32:00;3.00;;;1.17;;
32094;SDS011;18608;53.688;10.748;2023-02-01T09:34:26;4.53;;;1.67;;
32094;SDS011;18608;53.688;10.748;2023-02-01T09:36:51;1.80;;;1.10;;
32094;SDS011;18608;53.688;10.748;2023-02-01T09:39:17;2.40;;;1.27;;
32094;SDS011;18608;53.688;10.748;2023-02-01T09:47:00;13.50;;;1.87;;
32094;SDS011;18608;53.688;10.748;2023-02-01T09:49:28;1.70;;;1.33;;
32094;SDS011;18608;53.688;10.748;2023-02-01T09:51:56;5.73;;;1.40;;
32094;SDS011;18608;53.688;10.748;2023-02-01T09:54:25;3.80;;;1.70;;
32094;SDS011;18608;53.688;10.748;2023-02-01T09:56:54;4.27;;;1.40;;
32094;SDS011;18608;53.688;10.748;2023-02-01T10:02:00;9.23;;;2.40;;
32094;SDS011;18608;53.688;10.748;2023-02-01T10:04:28;5.03;;;1.70;;
32094;SDS011;18608;53.688;10.748;2023-02-01T10:28:28;18.90;;;4.03;;
32094;SDS011;18608;53.688;10.748;2023-02-01T10:30:59;11.80;;;3.87;;
32094;SDS011;18608;53.688;10.748;2023-02-01T10:38:42;19.10;;;4.80;;
32094;SDS011;18608;53.688;10.748;2023-02-01T10:41:12;12.03;;;4.90;;
32094;SDS011;18608;53.688;10.748;2023-02-01T10:43:44;18.77;;;3.67;;
32094;SDS011;18608;53.688;10.748;2023-02-01T10:46:14;6.80;;;3.60;;
32094;SDS011;18608;53.688;10.748;2023-02-01T10:48:39;17.80;;;3.90;;
32094;SDS011;18608;53.688;10.748;2023-02-01T10:51:07;24.20;;;4.27;;
32094;SDS011;18608;53.688;10.748;2023-02-01T10:56:25;27.60;;;6.27;;
32094;SDS011;18608;53.688;10.748;2023-02-01T10:58:59;31.90;;;5.87;;
32094;SDS011;18608;53.688;10.748;2023-02-01T11:04:19;22.43;;;5.13;;
32094;SDS011;18608;53.688;10.748;2023-02-01T11:06:46;16.30;;;4.63;;
32094;SDS011;18608;53.688;10.748;2023-02-01T11:09:17;20.60;;;4.50;;
32094;SDS011;18608;53.688;10.748;2023-02-01T11:16:55;29.30;;;5.70;;
32094;SDS011;18608;53.688;10.748;2023-02-01T11:19:24;20.93;;;3.93;;
32094;SDS011;18608;53.688;10.748;2023-02-01T11:21:51;15.63;;;4.10;;
32094;SDS011;18608;53.688;10.748;2023-02-01T11:24:22;14.77;;;3.20;;
32094;SDS011;18608;53.688;10.748;2023-02-01T11:26:49;26.53;;;7.43;;
32094;SDS011;18608;53.688;10.748;2023-02-01T11:29:18;17.87;;;5.17;;
32094;SDS011;18608;53.688;10.748;2023-02-01T11:31:49;14.30;;;3.90;;
32094;SDS011;18608;53.688;10.748;2023-02-01T11:34:16;18.53;;;5.00;;
32094;SDS011;18608;53.688;10.748;2023-02-01T11:36:47;17.73;;;4.07;;
32094;SDS011;18608;53.688;10.748;2023-02-01T11:41:41;19.13;;;4.53;;
32094;SDS011;18608;53.688;10.748;2023-02-01T11:44:32;19.53;;;5.37;;
32094;SDS011;18608;53.688;10.748;2023-02-01T11:49:49;20.53;;;3.80;;
32094;SDS011;18608;53.688;10.748;2023-02-01T11:52:48;10.67;;;3.60;;
32094;SDS011;18608;53.688;10.748;2023-02-01T11:58:15;12.70;;;3.63;;
32094;SDS011;18608;53.688;10.748;2023-02-01T12:09:05;12.10;;;3.37;;
32094;SDS011;18608;53.688;10.748;2023-02-01T12:12:03;10.77;;;3.47;;
32094;SDS011;18608;53.688;10.748;2023-02-01T12:33:39;15.10;;;4.30;;
32094;SDS011;18608;53.688;10.748;2023-02-01T12:41:55;15.97;;;3.30;;
32094;SDS011;18608;53.688;10.748;2023-02-01T12:47:24;21.70;;;4.53;;
32094;SDS011;18608;53.688;10.748;2023-02-01T12:52:49;25.07;;;3.50;;
32094;SDS011;18608;53.688;10.748;2023-02-01T12:55:41;12.80;;;3.40;;
32094;SDS011;18608;53.688;10.748;2023-02-01T13:01:12;2.97;;;2.53;;
32094;SDS011;18608;53.688;10.748;2023-02-01T13:06:50;9.03;;;2.17;;
32094;SDS011;18608;53.688;10.748;2023-02-01T13:09:26;8.73;;;2.30;;
32094;SDS011;18608;53.688;10.748;2023-02-01T13:11:57;4.90;;;2.10;;
32094;SDS011;18608;53.688;10.748;2023-02-01T13:14:33;10.83;;;2.40;;
32094;SDS011;18608;53.688;10.748;2023-02-01T13:17:12;5.60;;;3.47;;
32094;SDS011;18608;53.688;10.748;2023-02-01T13:19:43;3.50;;;1.63;;
32094;SDS011;18608;53.688;10.748;2023-02-01T13:25:16;6.67;;;1.97;;
32094;SDS011;18608;53.688;10.748;2023-02-01T13:27:42;6.00;;;1.80;;
32094;SDS011;18608;53.688;10.748;2023-02-01T13:44:05;4.50;;;1.10;;
32094;SDS011;18608;53.688;10.748;2023-02-01T13:46:39;0.70;;;0.70;;
32094;SDS011;18608;53.688;10.748;2023-02-01T13:49:13;0.73;;;0.73;;
32094;SDS011;18608;53.688;10.748;2023-02-01T13:51:51;0.70;;;0.60;;
32094;SDS011;18608;53.688;10.748;2023-02-01T13:54:23;1.37;;;1.13;;
32094;SDS011;18608;53.688;10.748;2023-02-01T13:56:51;0.60;;;0.60;;
32094;SDS011;18608;53.688;10.748;2023-02-01T14:05:12;6.00;;;0.90;;
32094;SDS011;18608;53.688;10.748;2023-02-01T14:13:23;1.50;;;1.40;;
32094;SDS011;18608;53.688;10.748;2023-02-01T14:21:17;0.90;;;0.90;;
32094;SDS011;18608;53.688;10.748;2023-02-01T14:23:47;0.60;;;0.60;;
32094;SDS011;18608;53.688;10.748;2023-02-01T14:31:52;1.17;;;1.00;;
32094;SDS011;18608;53.688;10.748;2023-02-01T14:44:43;2.73;;;0.90;;
32094;SDS011;18608;53.688;10.748;2023-02-01T14:47:11;4.20;;;1.07;;
32094;SDS011;18608;53.688;10.748;2023-02-01T14:52:49;6.80;;;1.37;;
32094;SDS011;18608;53.688;10.748;2023-02-01T15:00:54;14.27;;;2.20;;
32094;SDS011;18608;53.688;10.748;2023-02-01T15:03:24;11.37;;;2.77;;
32094;SDS011;18608;53.688;10.748;2023-02-01T15:06:20;7.40;;;2.90;;
32094;SDS011;18608;53.688;10.748;2023-02-01T15:08:57;13.83;;;2.93;;
32094;SDS011;18608;53.688;10.748;2023-02-01T15:11:30;6.03;;;1.00;;
32094;SDS011;18608;53.688;10.748;2023-02-01T15:13:56;6.53;;;1.83;;
32094;SDS011;18608;53.688;10.748;2023-02-01T15:16:23;4.80;;;1.70;;
32094;SDS011;18608;53.688;10.748;2023-02-01T15:18:50;7.10;;;1.73;;
32094;SDS011;18608;53.688;10.748;2023-02-01T15:21:31;13.17;;;1.77;;
32094;SDS011;18608;53.688;10.748;2023-02-01T15:24:09;3.70;;;1.20;;
32094;SDS011;18608;53.688;10.748;2023-02-01T15:26:36;7.43;;;1.97;;
32094;SDS011;18608;53.688;10.748;2023-02-01T15:29:02;10.10;;;1.90;;
32094;SDS011;18608;53.688;10.748;2023-02-01T15:31:31;8.43;;;2.30;;
32094;SDS011;18608;53.688;10.748;2023-02-01T15:34:01;2.63;;;1.10;;
32094;SDS011;18608;53.688;10.748;2023-02-01T15:36:27;5.23;;;1.10;;
32094;SDS011;18608;53.688;10.748;2023-02-01T15:41:37;7.30;;;1.87;;
32094;SDS011;18608;53.688;10.748;2023-02-01T15:44:04;4.37;;;1.77;;
32094;SDS011;18608;53.688;10.748;2023-02-01T15:46:40;4.57;;;1.87;;
32094;SDS011;18608;53.688;10.748;2023-02-01T15:49:18;4.77;;;1.90;;
32094;SDS011;18608;53.688;10.748;2023-02-01T15:51:47;8.80;;;2.33;;
32094;SDS011;18608;53.688;10.748;2023-02-01T15:54:17;6.40;;;2.43;;
32094;SDS011;18608;53.688;10.748;2023-02-01T15:56:51;9.10;;;2.50;;
32094;SDS011;18608;53.688;10.748;2023-02-01T15:59:22;7.03;;;2.80;;
32094;SDS011;18608;53.688;10.748;2023-02-01T16:02:28;18.77;;;3.20;;
32094;SDS011;18608;53.688;10.748;2023-02-01T16:05:03;6.57;;;2.17;;
32094;SDS011;18608;53.688;10.748;2023-02-01T16:07:31;42.70;;;4.73;;
32094;SDS011;18608;53.688;10.748;2023-02-01T16:09:59;19.63;;;2.73;;
32094;SDS011;18608;53.688;10.748;2023-02-01T16:15:04;13.00;;;3.07;;
32094;SDS011;18608;53.688;10.748;2023-02-01T16:17:30;16.10;;;3.53;;
32094;SDS011;18608;53.688;10.748;2023-02-01T16:19:56;7.83;;;2.20;;
32094;SDS011;18608;53.688;10.748;2023-02-01T16:22:22;11.30;;;3.33;;
32094;SDS011;18608;53.688;10.748;2023-02-01T16:24:48;8.57;;;2.97;;
32094;SDS011;18608;53.688;10.748;2023-02-01T16:27:14;13.50;;;2.63;;
32094;SDS011;18608;53.688;10.748;2023-02-01T16:29:40;9.60;;;3.73;;
32094;SDS011;18608;53.688;10.748;2023-02-01T16:32:06;15.47;;;4.27;;
32094;SDS011;18608;53.688;10.748;2023-02-01T16:34:37;14.50;;;2.90;;
32094;SDS011;18608;53.688;10.748;2023-02-01T16:37:03;22.10;;;4.37;;
32094;SDS011;18608;53.688;10.748;2023-02-01T16:39:28;28.27;;;5.13;;
32094;SDS011;18608;53.688;10.748;2023-02-01T16:41:58;11.17;;;3.40;;
32094;SDS011;18608;53.688;10.748;2023-02-01T16:44:23;9.17;;;3.40;;
32094;SDS011;18608;53.688;10.748;2023-02-01T16:46:49;21.10;;;5.87;;
32094;SDS011;18608;53.688;10.748;2023-02-01T16:49:20;19.47;;;4.00;;
32094;SDS011;18608;53.688;10.748;2023-02-01T16:51:49;10.77;;;3.37;;
32094;SDS011;18608;53.688;10.748;2023-02-01T16:54:17;24.80;;;8.00;;
32094;SDS011;18608;53.688;10.748;2023-02-01T16:56:43;18.20;;;5.73;;
32094;SDS011;18608;53.688;10.748;2023-02-01T16:59:10;10.23;;;3.60;;
32094;SDS011;18608;53.688;10.748;2023-02-01T17:01:36;11.33;;;4.30;;
32094;SDS011;18608;53.688;10.748;2023-02-01T17:04:02;31.50;;;4.80;;
32094;SDS011;18608;53.688;10.748;2023-02-01T17:06:28;21.97;;;5.13;;
32094;SDS011;18608;53.688;10.748;2023-02-01T17:08:57;19.23;;;3.63;;
32094;SDS011;18608;53.688;10.748;2023-02-01T17:11:24;17.33;;;3.20;;
32094;SDS011;18608;53.688;10.748;2023-02-01T17:13:50;31.00;;;5.80;;
32094;SDS011;18608;53.688;10.748;2023-02-01T17:18:46;33.30;;;5.33;;
32094;SDS011;18608;53.688;10.748;2023-02-01T17:21:19;37.47;;;5.43;;
32094;SDS011;18608;53.688;10.748;2023-02-01T17:23:45;30.53;;;5.77;;
32094;SDS011;18608;53.688;10.748;2023-02-01T17:26:11;13.00;;;4.53;;
32094;SDS011;18608;53.688;10.748;2023-02-01T17:28:37;25.47;;;4.97;;
32094;SDS011;18608;53.688;10.748;2023-02-01T17:31:02;28.57;;;4.63;;
32094;SDS011;18608;53.688;10.748;2023-02-01T17:33:33;35.27;;;5.93;;
32094;SDS011;18608;53.688;10.748;2023-02-01T17:36:00;21.03;;;6.10;;
32094;SDS011;18608;53.688;10.748;2023-02-01T17:38:27;21.13;;;4.63;;
32094;SDS011;18608;53.688;10.748;2023-02-01T17:40:53;19.93;;;5.40;;
32094;SDS011;18608;53.688;10.748;2023-02-01T17:43:20;22.13;;;6.07;;
32094;SDS011;18608;53.688;10.748;2023-02-01T17:46:03;23.03;;;5.10;;
32094;SDS011;18608;53.688;10.748;2023-02-01T17:48:40;23.77;;;6.33;;
32094;SDS011;18608;53.688;10.748;2023-02-01T17:51:16;22.30;;;5.03;;
32094;SDS011;18608;53.688;10.748;2023-02-01T17:53:43;18.60;;;6.23;;